Time;durP1;ratioP1;P1;durP2;ratioP2;P2;SDS_P1;SDS_P2;PMS_P1;PMS_P2;Temp;Humidity;BMP_temperature;BMP_pressure;BME280_temperature;BME280_humidity;BME280_pressure;Samples;Min_cycle;Max_cycle;Signal;HPM_P1;HPM_P2
2021/07/19 00:01:47;;;;;;;4.03;2.38;;;17.10;99.90;;;;;;5083675;28;20033;-75
2021/07/19 00:04:12;;;;;;;6.25;1.80;;;17.10;99.90;;;;;;5084194;28;20036;-72
2021/07/19 00:06:38;;;;;;;7.78;3.05;;;17.00;99.90;;;;;;5084332;28;20029;-72
2021/07/19 00:09:04;;;;;;;10.07;2.58;;;17.10;99.90;;;;;;5084355;28;20037;-70
2021/07/19 00:11:29;;;;;;;6.00;2.03;;;17.00;99.90;;;;;;5084087;28;20029;-72
2021/07/19 00:13:55;;;;;;;5.75;1.80;;;17.00;99.90;;;;;;5083923;28;20052;-72
2021/07/19 00:16:22;;;;;;;13.38;2.33;;;17.00;99.90;;;;;;5084008;28;20025;-71
2021/07/19 00:18:48;;;;;;;3.28;2.13;;;16.90;99.90;;;;;;5082886;28;20154;-71
2021/07/19 00:21:13;;;;;;;12.05;2.80;;;16.90;99.90;;;;;;5084292;28;20092;-71
2021/07/19 00:23:39;;;;;;;7.43;2.03;;;16.90;99.90;;;;;;5084069;28;20111;-71
2021/07/19 00:26:05;;;;;;;4.85;2.00;;;16.90;99.90;;;;;;5084099;28;20080;-72
2021/07/19 00:28:31;;;;;;;3.72;2.22;;;16.80;99.90;;;;;;5083962;28;20423;-70
2021/07/19 00:30:57;;;;;;;3.20;1.75;;;16.90;99.90;;;;;;5083878;28;20488;-73
2021/07/19 00:33:23;;;;;;;6.40;2.35;;;16.80;99.90;;;;;;5084417;28;20029;-73
2021/07/19 00:35:49;;;;;;;2.72;1.77;;;16.80;99.90;;;;;;5087398;28;20047;-72
2021/07/19 00:38:14;;;;;;;5.40;1.40;;;16.80;99.90;;;;;;5087559;28;20024;-72
2021/07/19 00:40:40;;;;;;;8.43;1.98;;;16.90;99.90;;;;;;5085934;28;20028;-72
2021/07/19 00:43:06;;;;;;;8.25;2.15;;;16.80;99.90;;;;;;5087611;28;20351;-72
2021/07/19 00:45:32;;;;;;;6.50;3.03;;;16.80;99.90;;;;;;5086064;28;20025;-74
2021/07/19 00:48:00;;;;;;;4.35;1.92;;;16.80;99.90;;;;;;5087297;28;20028;-72
2021/07/19 00:50:28;;;;;;;3.70;1.75;;;16.80;99.90;;;;;;5087353;28;20044;-71
2021/07/19 00:52:57;;;;;;;4.20;1.88;;;16.80;99.90;;;;;;5087367;28;20028;-71
2021/07/19 00:55:33;;;;;;;7.53;2.13;;;16.90;99.90;;;;;;5087266;28;20734;-71
2021/07/19 00:58:03;;;;;;;2.13;0.98;;;16.90;99.90;;;;;;5087211;28;20020;-72
2021/07/19 01:00:31;;;;;;;1.88;1.50;;;16.90;99.90;;;;;;5087123;28;20031;-74
2021/07/19 01:02:58;;;;;;;6.32;1.85;;;16.90;99.90;;;;;;5087080;28;20025;-71
2021/07/19 01:05:25;;;;;;;3.45;1.92;;;16.80;99.90;;;;;;5086942;28;20051;-72
2021/07/19 01:07:53;;;;;;;10.25;2.53;;;17.00;99.90;;;;;;5085575;28;20081;-73
2021/07/19 01:10:19;;;;;;;6.75;1.92;;;16.90;99.90;;;;;;5086935;28;20112;-73
2021/07/19 01:12:50;;;;;;;3.55;1.73;;;16.90;99.90;;;;;;5086140;28;20020;-72
2021/07/19 01:15:17;;;;;;;3.17;2.03;;;16.90;99.90;;;;;;5085688;28;20045;-73
2021/07/19 01:17:43;;;;;;;5.25;2.35;;;16.90;99.90;;;;;;5086871;28;20460;-74
2021/07/19 01:20:10;;;;;;;5.22;2.10;;;16.90;99.90;;;;;;5087191;28;20082;-73
2021/07/19 01:22:48;;;;;;;10.65;2.17;;;16.90;99.90;;;;;;5085439;28;20033;-71
2021/07/19 01:25:50;;;;;;;5.57;2.10;;;16.90;99.90;;;;;;5086794;28;20539;-72
2021/07/19 01:28:22;;;;;;;2.75;1.60;;;16.80;99.90;;;;;;5084962;28;20578;-71
2021/07/19 01:30:48;;;;;;;7.88;2.38;;;16.80;99.90;;;;;;5086578;28;20085;-71
2021/07/19 01:33:15;;;;;;;11.13;2.67;;;16.80;99.90;;;;;;5086575;28;20031;-73
2021/07/19 01:35:44;;;;;;;8.23;2.10;;;16.80;99.90;;;;;;5085268;28;20067;-72
2021/07/19 01:38:11;;;;;;;5.40;1.88;;;16.80;99.90;;;;;;5086572;28;20042;-75
2021/07/19 01:40:38;;;;;;;6.80;1.77;;;16.70;99.90;;;;;;5086401;28;20025;-73
2021/07/19 01:43:04;;;;;;;7.85;2.63;;;16.70;99.90;;;;;;5086250;28;20056;-72
2021/07/19 01:45:30;;;;;;;2.55;1.30;;;16.70;99.90;;;;;;5084738;28;20092;-70
2021/07/19 01:47:55;;;;;;;13.70;2.38;;;16.70;99.90;;;;;;5085965;28;20028;-73
2021/07/19 01:50:29;;;;;;;6.30;2.35;;;16.80;99.90;;;;;;5086099;28;20221;-70
2021/07/19 01:52:55;;;;;;;7.03;2.30;;;16.70;99.90;;;;;;5086078;28;20043;-70
2021/07/19 01:55:21;;;;;;;7.70;2.70;;;16.70;99.90;;;;;;5085880;28;20112;-69
2021/07/19 01:57:47;;;;;;;8.52;2.40;;;16.60;99.90;;;;;;5086020;28;20029;-71
2021/07/19 02:00:19;;;;;;;5.47;2.05;;;16.70;99.90;;;;;;5083893;28;20029;-70
2021/07/19 02:02:51;;;;;;;2.85;1.35;;;16.60;99.90;;;;;;5081934;28;20028;-69
2021/07/19 02:05:18;;;;;;;3.45;1.77;;;16.60;99.90;;;;;;5065886;28;20405;-71
2021/07/19 02:07:47;;;;;;;5.47;2.42;;;16.70;99.90;;;;;;5065759;28;20021;-72
2021/07/19 02:10:19;;;;;;;16.17;2.60;;;16.60;99.90;;;;;;5065894;28;20097;-72
2021/07/19 02:12:45;;;;;;;7.65;1.60;;;16.60;99.90;;;;;;5065143;28;20033;-73
2021/07/19 02:15:21;;;;;;;6.63;1.67;;;16.60;99.90;;;;;;5065814;28;20040;-74
2021/07/19 02:17:55;;;;;;;3.90;1.98;;;16.60;99.90;;;;;;5065731;28;20120;-70
2021/07/19 02:20:22;;;;;;;2.88;1.80;;;16.40;99.90;;;;;;5065503;28;20017;-71
2021/07/19 02:22:48;;;;;;;5.60;2.50;;;16.50;99.90;;;;;;5064893;28;20029;-71
2021/07/19 02:25:16;;;;;;;9.23;2.38;;;16.40;99.90;;;;;;5065367;28;20040;-72
2021/07/19 02:27:45;;;;;;;15.38;1.73;;;16.50;99.90;;;;;;5071536;28;20055;-72
2021/07/19 02:30:13;;;;;;;4.00;1.67;;;16.50;99.90;;;;;;5084118;28;20111;-74
2021/07/19 02:32:45;;;;;;;5.72;1.73;;;16.50;99.90;;;;;;5085554;28;20025;-71
2021/07/19 02:35:13;;;;;;;4.90;1.48;;;16.50;99.90;;;;;;5085207;28;20067;-72
2021/07/19 02:37:41;;;;;;;3.33;1.75;;;16.50;99.90;;;;;;5085126;28;20028;-70
2021/07/19 02:40:09;;;;;;;5.82;2.05;;;16.50;99.90;;;;;;5085333;28;20400;-72
2021/07/19 02:42:39;;;;;;;5.32;1.90;;;16.50;99.90;;;;;;5085309;28;20042;-72
2021/07/19 02:45:07;;;;;;;3.67;1.50;;;16.50;99.90;;;;;;5083951;28;20028;-74
2021/07/19 02:47:37;;;;;;;3.88;1.73;;;16.50;99.90;;;;;;5085179;28;20032;-74
2021/07/19 02:50:05;;;;;;;3.63;1.67;;;16.50;99.90;;;;;;5083733;28;20809;-71
2021/07/19 02:52:32;;;;;;;5.20;2.30;;;16.40;99.90;;;;;;5084934;28;20031;-72
2021/07/19 02:55:00;;;;;;;2.20;1.35;;;16.40;99.90;;;;;;5084615;28;20066;-74
2021/07/19 02:57:25;;;;;;;8.68;2.47;;;16.50;99.90;;;;;;5084268;28;20016;-75
2021/07/19 02:59:51;;;;;;;8.93;1.92;;;16.50;99.90;;;;;;5083671;28;20020;-72
2021/07/19 03:02:20;;;;;;;19.48;3.55;;;16.50;99.90;;;;;;5084213;28;20032;-74
2021/07/19 03:04:51;;;;;;;5.70;2.35;;;16.50;99.90;;;;;;5085385;28;20100;-72
2021/07/19 03:07:19;;;;;;;5.18;1.77;;;16.50;99.90;;;;;;5084817;28;20036;-72
2021/07/19 03:09:48;;;;;;;10.10;1.58;;;16.40;99.90;;;;;;5084882;28;20017;-74
2021/07/19 03:12:19;;;;;;;5.25;1.60;;;16.50;99.90;;;;;;5077240;28;20021;-71
2021/07/19 03:14:48;;;;;;;4.22;1.80;;;16.50;99.90;;;;;;5063123;28;20052;-70
2021/07/19 03:17:18;;;;;;;4.90;1.83;;;16.50;99.90;;;;;;5064591;28;20049;-71
2021/07/19 03:19:50;;;;;;;4.57;1.98;;;16.50;99.90;;;;;;5064707;28;20032;-70
2021/07/19 03:22:18;;;;;;;4.15;1.58;;;16.50;99.90;;;;;;5064448;28;20047;-70
2021/07/19 03:24:47;;;;;;;3.45;1.52;;;16.50;99.90;;;;;;5080246;28;20021;-73
2021/07/19 03:27:13;;;;;;;5.45;2.15;;;16.40;99.90;;;;;;5064656;28;20029;-74
2021/07/19 03:29:40;;;;;;;4.70;1.75;;;16.40;99.90;;;;;;5064663;28;20043;-73
2021/07/19 03:32:08;;;;;;;3.63;1.98;;;16.40;99.90;;;;;;5064107;28;20032;-71
2021/07/19 03:34:34;;;;;;;3.58;2.22;;;16.40;99.90;;;;;;5064492;28;20072;-71
2021/07/19 03:37:01;;;;;;;6.15;1.90;;;16.40;99.90;;;;;;5064150;28;20093;-73
2021/07/19 03:39:27;;;;;;;8.90;2.03;;;16.40;99.90;;;;;;5064314;28;20048;-71
2021/07/19 03:41:54;;;;;;;5.20;1.85;;;16.40;99.90;;;;;;5064175;28;20029;-70
2021/07/19 03:44:20;;;;;;;9.82;2.38;;;16.40;99.90;;;;;;5064171;28;20025;-70
2021/07/19 03:46:47;;;;;;;10.90;1.67;;;16.40;99.90;;;;;;5064271;28;20085;-69
2021/07/19 03:49:16;;;;;;;9.27;2.03;;;16.40;99.90;;;;;;5064195;28;20029;-70
2021/07/19 03:51:43;;;;;;;3.65;1.95;;;16.40;99.90;;;;;;5063303;28;20029;-70
2021/07/19 03:54:09;;;;;;;2.90;1.58;;;16.40;99.90;;;;;;5064319;28;20045;-73
2021/07/19 03:56:36;;;;;;;3.00;1.55;;;16.40;99.90;;;;;;5064247;28;20032;-71
2021/07/19 03:59:08;;;;;;;2.25;1.40;;;16.50;99.90;;;;;;5064232;28;20089;-72
2021/07/19 04:01:35;;;;;;;2.13;1.55;;;16.50;99.90;;;;;;5062835;28;20033;-71
2021/07/19 04:04:07;;;;;;;7.15;1.98;;;16.50;99.90;;;;;;5064057;28;20086;-72
2021/07/19 04:06:33;;;;;;;3.30;1.70;;;16.50;99.90;;;;;;5062809;28;20403;-69
2021/07/19 04:08:59;;;;;;;6.32;2.85;;;16.50;99.90;;;;;;5065850;28;20029;-71
2021/07/19 04:11:26;;;;;;;12.98;2.13;;;16.50;99.90;;;;;;5067945;28;20025;-73
2021/07/19 04:13:53;;;;;;;1.63;1.25;;;16.50;99.90;;;;;;5067501;28;20048;-70
2021/07/19 04:16:19;;;;;;;6.85;2.38;;;16.50;99.90;;;;;;5067756;28;20033;-73
2021/07/19 04:18:49;;;;;;;1.95;1.35;;;16.60;99.90;;;;;;5067923;28;20017;-74
2021/07/19 04:21:16;;;;;;;9.00;1.83;;;16.60;99.90;;;;;;5066651;28;20079;-72
2021/07/19 04:23:42;;;;;;;5.40;1.67;;;16.60;99.90;;;;;;5068042;28;20040;-71
2021/07/19 04:26:12;;;;;;;2.72;1.63;;;16.50;99.90;;;;;;5067872;28;20100;-74
2021/07/19 04:28:39;;;;;;;11.00;2.05;;;16.50;99.90;;;;;;5066584;28;20116;-73
2021/07/19 04:31:05;;;;;;;4.28;2.08;;;16.60;99.90;;;;;;5066547;28;20552;-70
2021/07/19 04:33:30;;;;;;;3.22;1.77;;;16.50;99.90;;;;;;5067207;28;20044;-72
2021/07/19 04:36:05;;;;;;;5.78;1.90;;;16.50;99.90;;;;;;5067552;28;20059;-73
2021/07/19 04:38:31;;;;;;;4.85;2.03;;;16.50;99.90;;;;;;5067506;28;20033;-72
2021/07/19 04:40:58;;;;;;;9.50;1.80;;;16.50;99.90;;;;;;5067521;28;20040;-70
2021/07/19 04:43:25;;;;;;;4.60;1.80;;;16.40;99.90;;;;;;5066854;28;20024;-71
2021/07/19 04:45:52;;;;;;;1.83;1.15;;;16.50;99.90;;;;;;5067491;28;20021;-71
2021/07/19 04:48:18;;;;;;;8.95;2.05;;;16.50;99.90;;;;;;5067497;28;20025;-70
2021/07/19 04:50:45;;;;;;;3.95;1.85;;;16.50;99.90;;;;;;5068024;28;20029;-71
2021/07/19 04:53:13;;;;;;;3.22;1.65;;;16.50;99.90;;;;;;5069221;28;20033;-68
2021/07/19 04:55:41;;;;;;;5.63;1.90;;;16.50;99.90;;;;;;5086023;28;20052;-71
2021/07/19 04:58:08;;;;;;;3.17;1.55;;;16.50;99.90;;;;;;5087149;28;20074;-69
2021/07/19 05:00:35;;;;;;;14.57;2.60;;;16.60;99.90;;;;;;5087211;28;20029;-71
2021/07/19 05:03:05;;;;;;;6.57;2.03;;;16.50;99.90;;;;;;5082578;28;20036;-69
2021/07/19 05:05:32;;;;;;;2.15;1.42;;;16.60;99.90;;;;;;5066620;28;20025;-69
2021/07/19 05:07:59;;;;;;;3.33;1.50;;;16.60;99.90;;;;;;5067058;28;20105;-72
2021/07/19 05:10:26;;;;;;;4.97;1.88;;;16.60;99.90;;;;;;5067418;28;20035;-70
2021/07/19 05:12:52;;;;;;;3.95;1.65;;;16.60;99.90;;;;;;5066272;28;20029;-69
2021/07/19 05:15:23;;;;;;;13.65;2.15;;;16.60;99.90;;;;;;5066970;28;20041;-72
2021/07/19 05:17:49;;;;;;;3.60;1.48;;;16.70;99.90;;;;;;5067006;28;20029;-70
2021/07/19 05:20:17;;;;;;;3.05;2.00;;;16.80;99.90;;;;;;5066084;28;20037;-72
2021/07/19 05:22:51;;;;;;;3.53;1.55;;;16.80;99.90;;;;;;5082130;28;20028;-73
2021/07/19 05:25:22;;;;;;;4.03;1.60;;;16.80;99.90;;;;;;5086948;28;20038;-70
2021/07/19 05:28:06;;;;;;;8.35;1.73;;;16.80;99.90;;;;;;5086721;28;20029;-69
2021/07/19 05:30:34;;;;;;;7.65;1.55;;;16.80;99.90;;;;;;5086302;28;20077;-70
2021/07/19 05:32:59;;;;;;;6.32;1.88;;;16.80;99.90;;;;;;5086472;28;20029;-72
2021/07/19 05:35:25;;;;;;;9.07;2.22;;;16.80;99.90;;;;;;5086283;28;20033;-72
2021/07/19 05:37:50;;;;;;;3.60;1.27;;;16.80;99.90;;;;;;5086111;28;20024;-73
2021/07/19 05:40:17;;;;;;;14.43;2.17;;;16.80;99.90;;;;;;5086357;28;20029;-75
2021/07/19 05:42:43;;;;;;;2.60;1.35;;;16.80;99.90;;;;;;5083151;28;20115;-71
2021/07/19 05:45:12;;;;;;;4.78;2.08;;;16.90;99.90;;;;;;5082339;28;20052;-72
2021/07/19 05:47:39;;;;;;;3.28;1.20;;;16.90;99.90;;;;;;5066046;28;20037;-71
2021/07/19 05:50:08;;;;;;;5.32;2.10;;;16.90;99.90;;;;;;5064281;28;20048;-71
2021/07/19 05:52:34;;;;;;;8.32;1.55;;;17.00;99.90;;;;;;5066169;28;20029;-72
2021/07/19 05:55:01;;;;;;;4.82;1.92;;;17.00;99.90;;;;;;5065741;28;20073;-69
2021/07/19 05:57:27;;;;;;;2.70;1.38;;;17.00;99.90;;;;;;5065843;28;20025;-70
2021/07/19 05:59:56;;;;;;;4.72;1.88;;;17.00;99.90;;;;;;5065821;28;20055;-70
2021/07/19 06:02:23;;;;;;;12.20;2.03;;;17.00;99.90;;;;;;5064521;28;20500;-70
2021/07/19 06:04:49;;;;;;;7.53;1.98;;;17.00;99.90;;;;;;5065301;28;20029;-70
2021/07/19 06:07:14;;;;;;;14.25;1.80;;;17.10;99.90;;;;;;5065437;28;20056;-72
2021/07/19 06:09:40;;;;;;;6.57;1.75;;;17.10;99.90;;;;;;5064995;28;20025;-71
2021/07/19 06:12:07;;;;;;;6.70;1.75;;;17.00;99.90;;;;;;5065793;28;20037;-72
2021/07/19 06:14:32;;;;;;;5.53;1.83;;;17.00;99.90;;;;;;5065045;28;20142;-71
2021/07/19 06:16:58;;;;;;;5.50;1.92;;;17.00;99.90;;;;;;5065338;28;20028;-72
2021/07/19 06:19:24;;;;;;;5.43;1.48;;;17.00;99.90;;;;;;5079208;28;20028;-72
2021/07/19 06:21:50;;;;;;;6.03;1.48;;;16.90;99.90;;;;;;5068089;28;20059;-71
2021/07/19 06:24:26;;;;;;;4.05;1.80;;;17.00;99.90;;;;;;5065505;28;20029;-73
2021/07/19 06:26:52;;;;;;;6.97;1.35;;;17.00;99.90;;;;;;5065172;28;20029;-71
2021/07/19 06:29:18;;;;;;;5.10;2.08;;;17.00;99.90;;;;;;5082790;28;20039;-72
2021/07/19 06:31:43;;;;;;;2.88;1.52;;;16.90;99.90;;;;;;5074317;28;20028;-71
2021/07/19 06:34:11;;;;;;;6.00;1.85;;;16.90;99.90;;;;;;5077252;28;20032;-72
2021/07/19 06:36:37;;;;;;;6.10;1.73;;;17.00;99.90;;;;;;5074799;28;20420;-75
2021/07/19 06:39:04;;;;;;;8.52;1.73;;;17.00;99.90;;;;;;5081381;28;20039;-71
2021/07/19 06:41:30;;;;;;;7.13;2.40;;;17.10;99.90;;;;;;5084998;28;20177;-70
2021/07/19 06:43:56;;;;;;;2.83;1.83;;;17.10;99.90;;;;;;5085186;28;20464;-70
2021/07/19 06:46:22;;;;;;;4.07;1.65;;;17.10;99.90;;;;;;5084520;28;20028;-69
2021/07/19 06:48:47;;;;;;;3.65;2.00;;;17.10;99.90;;;;;;5084619;28;20032;-73
2021/07/19 06:51:13;;;;;;;3.17;1.60;;;17.10;99.90;;;;;;5082830;28;20063;-73
2021/07/19 06:53:38;;;;;;;7.55;2.00;;;17.20;99.90;;;;;;5082002;28;20048;-74
2021/07/19 06:56:04;;;;;;;3.67;1.70;;;17.10;99.90;;;;;;5081550;28;20033;-73
2021/07/19 06:58:30;;;;;;;3.25;1.55;;;17.20;99.90;;;;;;5082460;28;20039;-73
2021/07/19 07:00:56;;;;;;;17.48;1.50;;;17.30;99.90;;;;;;5084282;28;20029;-77
2021/07/19 07:03:21;;;;;;;5.13;1.85;;;17.30;99.90;;;;;;5084508;28;20028;-73
2021/07/19 07:05:47;;;;;;;2.40;1.48;;;17.30;99.90;;;;;;5084418;28;20036;-74
2021/07/19 07:08:12;;;;;;;6.07;1.80;;;17.50;99.90;;;;;;5084640;28;20033;-73
2021/07/19 07:10:38;;;;;;;3.40;1.73;;;17.60;99.90;;;;;;5081149;28;20039;-73
2021/07/19 07:13:09;;;;;;;3.90;1.83;;;17.60;99.90;;;;;;5080190;28;20462;-71
2021/07/19 07:15:36;;;;;;;4.35;1.88;;;17.70;99.90;;;;;;5074032;28;20044;-73
2021/07/19 07:18:07;;;;;;;5.22;1.90;;;17.80;99.90;;;;;;5063443;28;20120;-71
2021/07/19 07:20:34;;;;;;;4.35;1.65;;;17.80;99.90;;;;;;5062818;28;20060;-73
2021/07/19 07:23:00;;;;;;;7.00;1.90;;;17.90;99.90;;;;;;5068992;28;20169;-70
2021/07/19 07:25:26;;;;;;;4.97;2.55;;;17.90;99.90;;;;;;5084970;28;20032;-74
2021/07/19 07:27:51;;;;;;;4.55;2.05;;;18.00;99.90;;;;;;5084188;28;20107;-70
2021/07/19 07:30:17;;;;;;;1.83;1.30;;;18.00;99.90;;;;;;5069987;28;20036;-73
2021/07/19 07:32:44;;;;;;;2.53;1.40;;;18.10;99.90;;;;;;5078309;28;20028;-75
2021/07/19 07:35:11;;;;;;;8.10;2.17;;;18.10;99.90;;;;;;5063590;28;20048;-72
2021/07/19 07:37:38;;;;;;;9.27;2.35;;;18.10;99.90;;;;;;5064496;28;20029;-74
2021/07/19 07:40:06;;;;;;;4.03;1.73;;;18.20;99.90;;;;;;5070815;28;20029;-73
2021/07/19 07:42:32;;;;;;;7.32;2.22;;;18.20;99.90;;;;;;5084078;28;20078;-71
2021/07/19 07:44:58;;;;;;;3.75;2.00;;;18.30;99.90;;;;;;5087390;28;20090;-73
2021/07/19 07:47:24;;;;;;;4.30;1.92;;;18.20;99.90;;;;;;5087862;28;20453;-72
2021/07/19 07:49:49;;;;;;;6.03;2.42;;;18.20;99.90;;;;;;5068561;28;20056;-74
2021/07/19 07:52:22;;;;;;;9.63;2.33;;;18.20;99.90;;;;;;5067924;28;20025;-74
2021/07/19 07:54:48;;;;;;;4.22;2.05;;;18.20;99.90;;;;;;5067660;28;20171;-74
2021/07/19 07:57:14;;;;;;;10.63;2.55;;;18.30;99.90;;;;;;5066427;28;20448;-73
2021/07/19 07:59:40;;;;;;;6.85;2.55;;;18.30;99.90;;;;;;5068030;28;20389;-73
2021/07/19 08:02:06;;;;;;;3.72;2.03;;;18.30;99.90;;;;;;5066158;28;20021;-72
2021/07/19 08:04:36;;;;;;;6.55;2.08;;;18.40;99.90;;;;;;5067867;28;20040;-73
2021/07/19 08:07:03;;;;;;;4.32;2.60;;;18.50;99.90;;;;;;5067567;28;20040;-70
2021/07/19 08:09:29;;;;;;;3.40;1.77;;;18.50;99.90;;;;;;5083726;28;20032;-73
2021/07/19 08:11:55;;;;;;;4.88;2.38;;;18.60;99.90;;;;;;5087461;28;20039;-72
2021/07/19 08:14:21;;;;;;;5.72;2.17;;;18.70;99.90;;;;;;5087047;28;20119;-73
2021/07/19 08:16:47;;;;;;;4.50;2.10;;;18.70;99.90;;;;;;5087526;28;20078;-72
2021/07/19 08:19:13;;;;;;;4.03;2.10;;;18.80;99.90;;;;;;5087710;28;20032;-73
2021/07/19 08:21:41;;;;;;;2.83;1.70;;;18.70;99.90;;;;;;5087890;28;20075;-74
2021/07/19 08:24:08;;;;;;;5.28;2.33;;;18.90;99.90;;;;;;5087870;28;20028;-70
2021/07/19 08:26:35;;;;;;;3.05;2.08;;;18.90;99.90;;;;;;5087428;28;20024;-70
2021/07/19 08:29:01;;;;;;;4.28;2.40;;;19.00;99.90;;;;;;5087414;28;20033;-69
2021/07/19 08:31:28;;;;;;;6.15;2.17;;;18.90;99.90;;;;;;5087749;28;20078;-70
2021/07/19 08:33:55;;;;;;;6.57;2.95;;;18.80;99.90;;;;;;5085948;28;20028;-72
2021/07/19 08:36:21;;;;;;;6.15;2.00;;;18.80;99.90;;;;;;5067332;28;20028;-72
2021/07/19 08:38:47;;;;;;;5.72;1.98;;;18.60;99.90;;;;;;5074587;28;20090;-72
2021/07/19 08:41:14;;;;;;;5.18;2.28;;;18.50;99.90;;;;;;5082333;28;20033;-71
2021/07/19 08:43:41;;;;;;;6.53;2.15;;;18.60;99.90;;;;;;5076772;28;20086;-70
2021/07/19 08:46:09;;;;;;;4.90;2.58;;;18.60;99.90;;;;;;5087615;28;20054;-72
2021/07/19 08:48:35;;;;;;;4.15;1.73;;;18.60;99.90;;;;;;5087450;28;20032;-73
2021/07/19 08:51:02;;;;;;;4.13;1.77;;;18.60;99.90;;;;;;5087428;28;20020;-70
2021/07/19 08:53:30;;;;;;;3.83;2.08;;;18.70;99.90;;;;;;5086892;28;20107;-72
2021/07/19 08:55:56;;;;;;;5.30;2.08;;;18.90;99.90;;;;;;5086399;28;20036;-72
2021/07/19 08:58:23;;;;;;;7.65;2.83;;;18.90;99.90;;;;;;5084748;28;20109;-72
2021/07/19 09:00:51;;;;;;;5.25;1.88;;;19.10;99.90;;;;;;5065810;28;20025;-72
2021/07/19 09:03:16;;;;;;;10.70;2.60;;;19.10;99.90;;;;;;5067103;28;20036;-73
2021/07/19 09:05:42;;;;;;;2.70;1.77;;;19.00;99.90;;;;;;5067058;28;20029;-72
2021/07/19 09:08:09;;;;;;;7.90;2.70;;;18.90;99.90;;;;;;5067313;28;20380;-71
2021/07/19 09:10:35;;;;;;;4.25;1.95;;;18.80;99.90;;;;;;5066812;28;20071;-71
2021/07/19 09:13:01;;;;;;;3.40;1.75;;;18.70;99.90;;;;;;5082145;28;20033;-70
2021/07/19 09:15:33;;;;;;;9.40;2.78;;;18.60;99.90;;;;;;5066552;28;20049;-73
2021/07/19 09:18:01;;;;;;;4.30;1.90;;;18.60;99.90;;;;;;5077442;28;20036;-72
2021/07/19 09:20:34;;;;;;;3.35;2.05;;;18.60;99.90;;;;;;5068538;28;20032;-70
2021/07/19 09:23:01;;;;;;;10.43;2.92;;;18.60;99.90;;;;;;5066520;28;20025;-72
2021/07/19 09:25:26;;;;;;;2.60;1.63;;;18.70;99.90;;;;;;5064568;28;20037;-71
2021/07/19 09:27:57;;;;;;;4.57;2.08;;;18.70;99.90;;;;;;5064234;28;20028;-73
2021/07/19 09:30:25;;;;;;;7.60;2.15;;;18.70;99.90;;;;;;5066693;28;20025;-72
2021/07/19 09:33:00;;;;;;;4.93;1.83;;;18.70;99.90;;;;;;5066754;28;20029;-73
2021/07/19 09:35:27;;;;;;;4.57;2.00;;;18.70;99.90;;;;;;5066278;28;20033;-71
2021/07/19 09:37:54;;;;;;;7.82;2.53;;;18.70;99.90;;;;;;5066832;28;20044;-72
2021/07/19 09:40:27;;;;;;;4.82;2.22;;;18.70;99.90;;;;;;5066399;28;20021;-71
2021/07/19 09:42:54;;;;;;;4.20;2.22;;;18.60;99.90;;;;;;5066291;28;20032;-72
2021/07/19 09:45:27;;;;;;;9.30;2.45;;;18.50;99.90;;;;;;5066348;28;20052;-71
2021/07/19 09:48:01;;;;;;;5.47;2.08;;;18.50;99.90;;;;;;5066301;28;20061;-72
2021/07/19 09:50:26;;;;;;;8.00;2.53;;;18.50;99.90;;;;;;5064971;28;20360;-70
2021/07/19 09:52:53;;;;;;;9.05;1.80;;;18.50;99.90;;;;;;5066018;28;20052;-73
2021/07/19 09:55:25;;;;;;;3.00;1.63;;;18.50;99.90;;;;;;5065903;28;20033;-72
2021/07/19 09:57:55;;;;;;;4.88;2.50;;;18.50;99.90;;;;;;5066076;28;20022;-71
2021/07/19 10:00:21;;;;;;;7.38;2.25;;;18.40;99.90;;;;;;5067337;28;20111;-75
2021/07/19 10:02:47;;;;;;;12.85;2.45;;;18.40;99.90;;;;;;5082898;28;20512;-71
2021/07/19 10:05:23;;;;;;;5.07;2.42;;;18.40;99.90;;;;;;5085452;28;20092;-71
2021/07/19 10:07:49;;;;;;;5.65;2.78;;;18.40;99.90;;;;;;5079438;28;20059;-71
2021/07/19 10:10:16;;;;;;;3.92;2.00;;;18.30;99.90;;;;;;5065800;28;20028;-72
2021/07/19 10:12:42;;;;;;;5.15;2.60;;;18.40;99.90;;;;;;5065723;28;20049;-74
2021/07/19 10:15:11;;;;;;;4.60;2.45;;;18.40;99.90;;;;;;5065631;28;20187;-74
2021/07/19 10:17:37;;;;;;;4.45;2.63;;;18.40;99.90;;;;;;5065897;28;20060;-74
2021/07/19 10:20:05;;;;;;;6.88;3.03;;;18.30;99.90;;;;;;5065485;28;20413;-73
2021/07/19 10:22:30;;;;;;;5.18;1.73;;;18.40;99.90;;;;;;5065642;28;20642;-72
2021/07/19 10:24:56;;;;;;;5.55;2.10;;;18.40;99.90;;;;;;5065263;28;20021;-73
2021/07/19 10:27:27;;;;;;;4.47;2.10;;;18.50;99.90;;;;;;5080830;28;20060;-73
2021/07/19 10:29:53;;;;;;;3.75;2.10;;;18.60;99.90;;;;;;5065362;28;20021;-74
2021/07/19 10:32:22;;;;;;;3.22;1.63;;;18.80;99.90;;;;;;5065385;28;20025;-72
2021/07/19 10:34:53;;;;;;;3.58;2.13;;;18.90;99.90;;;;;;5065201;28;20094;-71
2021/07/19 10:37:45;;;;;;;3.90;1.75;;;19.10;99.90;;;;;;5076067;28;20028;-74
2021/07/19 10:40:20;;;;;;;4.20;1.90;;;19.30;99.90;;;;;;5077423;28;20066;-73
2021/07/19 10:42:48;;;;;;;6.60;2.53;;;19.40;99.90;;;;;;5085334;28;20029;-72
2021/07/19 10:45:16;;;;;;;4.97;2.05;;;19.50;99.90;;;;;;5085229;28;20024;-72
2021/07/19 10:47:54;;;;;;;9.82;2.30;;;19.60;99.90;;;;;;5085379;28;20024;-71
2021/07/19 10:50:26;;;;;;;2.95;1.50;;;19.50;99.90;;;;;;5085280;28;20032;-71
2021/07/19 10:52:52;;;;;;;2.65;1.77;;;19.50;99.90;;;;;;5078852;28;20112;-71
2021/07/19 10:55:32;;;;;;;4.63;1.77;;;19.40;99.90;;;;;;5085394;28;20037;-73
2021/07/19 10:58:05;;;;;;;16.63;1.73;;;19.40;99.90;;;;;;5084957;28;20040;-71
2021/07/19 11:00:43;;;;;;;3.53;1.80;;;19.30;99.90;;;;;;5067408;28;20029;-70
2021/07/19 11:03:10;;;;;;;5.20;2.40;;;19.30;99.90;;;;;;5064797;28;20013;-73
2021/07/19 11:05:42;;;;;;;2.33;1.65;;;19.30;99.90;;;;;;5063595;28;20032;-74
2021/07/19 11:08:19;;;;;;;8.38;1.40;;;19.40;99.90;;;;;;5064187;28;20051;-73
2021/07/19 11:10:46;;;;;;;10.13;2.22;;;19.50;99.90;;;;;;5064121;28;20366;-71
2021/07/19 11:13:24;;;;;;;4.07;1.75;;;19.50;99.90;;;;;;5062901;28;20094;-74
2021/07/19 11:15:51;;;;;;;5.40;2.33;;;19.50;99.90;;;;;;5064143;28;20037;-73
2021/07/19 11:18:19;;;;;;;5.57;1.73;;;19.60;99.90;;;;;;5062909;28;20088;-73
2021/07/19 11:20:47;;;;;;;2.83;1.55;;;19.60;99.90;;;;;;5064803;28;20120;-72
2021/07/19 11:23:14;;;;;;;9.65;2.42;;;19.60;99.90;;;;;;5064657;28;20033;-72
2021/07/19 11:25:42;;;;;;;2.95;1.70;;;19.50;99.90;;;;;;5064441;28;20032;-73
2021/07/19 11:28:20;;;;;;;3.25;1.85;;;19.40;99.90;;;;;;5064768;28;20458;-75
2021/07/19 11:31:05;;;;;;;5.78;2.20;;;19.40;99.90;;;;;;5064335;28;20025;-75
2021/07/19 11:33:42;;;;;;;2.53;1.52;;;19.30;99.90;;;;;;5063471;28;20025;-73
2021/07/19 11:36:44;;;;;;;2.88;1.70;;;19.20;99.90;;;;;;5071482;28;20037;-74
2021/07/19 11:39:17;;;;;;;2.63;1.17;;;19.20;99.90;;;;;;5063103;28;20021;-73
2021/07/19 11:41:43;;;;;;;4.15;1.98;;;19.10;99.90;;;;;;5063092;28;20552;-73
2021/07/19 11:44:16;;;;;;;2.35;1.27;;;19.10;99.90;;;;;;5064225;28;20033;-74
2021/07/19 11:46:44;;;;;;;;;;;19.00;99.90;;;;;;5064656;28;20089;-73
2021/07/19 11:49:13;;;;;;;4.88;1.83;;;19.00;99.90;;;;;;5064414;28;19905;-73
2021/07/19 11:51:42;;;;;;;2.20;1.40;;;19.00;99.90;;;;;;5062928;28;20036;-72
2021/07/19 11:54:15;;;;;;;2.80;1.33;;;19.00;99.90;;;;;;5062690;28;20029;-71
2021/07/19 11:56:50;;;;;;;5.57;1.85;;;19.00;99.90;;;;;;5064341;28;20029;-70
2021/07/19 11:59:24;;;;;;;3.13;1.48;;;19.00;99.90;;;;;;5043964;28;20026;-71
2021/07/19 12:02:00;;;;;;;12.43;1.80;;;19.00;99.90;;;;;;5044216;28;20029;-71
2021/07/19 12:04:45;;;;;;;3.78;2.17;;;19.00;99.90;;;;;;5044165;28;20021;-72
2021/07/19 12:07:11;;;;;;;4.28;1.73;;;19.00;99.90;;;;;;5044162;28;20028;-72
2021/07/19 12:09:39;;;;;;;6.47;1.92;;;19.00;99.90;;;;;;5043908;28;20022;-71
2021/07/19 12:12:06;;;;;;;3.85;1.63;;;19.00;99.90;;;;;;5044393;28;20017;-70
2021/07/19 12:14:31;;;;;;;16.98;1.95;;;19.00;99.90;;;;;;5043929;28;20049;-71
2021/07/19 12:16:58;;;;;;;2.08;1.52;;;19.00;99.90;;;;;;5042701;28;20034;-71
2021/07/19 12:19:24;;;;;;;11.52;1.58;;;19.00;99.90;;;;;;5043933;28;20478;-72
2021/07/19 12:21:52;;;;;;;2.13;1.23;;;19.00;99.90;;;;;;5044041;28;20026;-73
2021/07/19 12:24:20;;;;;;;6.78;1.70;;;19.00;99.90;;;;;;5043917;28;20025;-72
2021/07/19 12:26:48;;;;;;;7.22;2.10;;;19.00;99.90;;;;;;5044125;28;20040;-71
2021/07/19 12:29:24;;;;;;;3.30;1.77;;;18.90;99.90;;;;;;5046167;28;20025;-74
2021/07/19 12:31:52;;;;;;;4.72;1.80;;;18.90;99.90;;;;;;5047823;28;20029;-72
2021/07/19 12:34:22;;;;;;;6.22;1.95;;;18.90;99.90;;;;;;5047705;28;20025;-72
2021/07/19 12:36:51;;;;;;;2.35;1.40;;;18.80;99.90;;;;;;5047578;28;20029;-72
2021/07/19 12:39:20;;;;;;;12.43;1.85;;;18.80;99.90;;;;;;5047651;28;20071;-69
2021/07/19 12:41:48;;;;;;;6.95;1.83;;;18.80;99.90;;;;;;5047567;28;20026;-72
2021/07/19 12:44:14;;;;;;;6.20;1.83;;;18.80;99.90;;;;;;5047548;28;20036;-74
2021/07/19 12:46:46;;;;;;;7.00;1.85;;;18.80;99.90;;;;;;5047751;28;20409;-71
2021/07/19 12:49:13;;;;;;;6.35;2.10;;;18.80;99.90;;;;;;5047548;28;20030;-71
2021/07/19 12:51:40;;;;;;;4.13;1.90;;;18.90;99.90;;;;;;5047246;28;20052;-72